createdAt,value
2023-04-07T07:58:58.400Z,11.57
2023-04-07T08:02:17.695Z,11.67
2023-04-07T08:08:34.479Z,11.80
2023-04-07T08:22:46.200Z,11.92
2023-04-07T08:25:14.300Z,11.96
2023-04-07T08:27:42.258Z,12.01
2023-04-07T08:30:10.699Z,12.09
2023-04-07T08:32:39.180Z,12.25
2023-04-07T08:35:07.977Z,12.35
2023-04-07T08:37:35.990Z,12.44
2023-04-07T08:40:07.387Z,12.57
2023-04-07T08:42:36.334Z,12.73
2023-04-07T08:45:06.555Z,12.89
2023-04-07T08:47:36.041Z,13.04
2023-04-07T08:50:06.239Z,13.14
2023-04-07T08:52:36.358Z,13.31
2023-04-07T08:55:08.549Z,13.46
2023-04-07T08:57:36.625Z,13.64
2023-04-07T09:00:05.954Z,13.83
2023-04-07T09:02:35.070Z,13.97
2023-04-07T09:05:04.104Z,14.12
2023-04-07T09:07:33.198Z,14.27
2023-04-07T09:10:01.663Z,14.41
2023-04-07T09:12:31.255Z,14.51
2023-04-07T09:14:59.259Z,14.74
2023-04-07T09:17:27.984Z,14.92
2023-04-07T09:19:58.581Z,15.11
2023-04-07T09:22:36.962Z,15.33
2023-04-07T09:25:12.846Z,15.55
2023-04-07T09:28:02.240Z,15.72
2023-04-07T09:30:30.426Z,15.93
2023-04-07T09:32:58.741Z,16.08
2023-04-07T09:35:28.507Z,16.28
2023-04-07T09:38:04.190Z,16.46
2023-04-07T09:40:34.535Z,16.62
2023-04-07T09:43:04.719Z,16.78
2023-04-07T09:45:35.812Z,16.87
2023-04-07T09:48:10.231Z,16.85
2023-04-07T09:50:41.287Z,16.77
2023-04-07T09:53:09.746Z,16.84
2023-04-07T09:55:38.600Z,16.99
2023-04-07T09:58:08.486Z,17.22
2023-04-07T10:00:37.042Z,17.44
2023-04-07T10:03:05.344Z,17.60
2023-04-07T10:05:33.547Z,17.60
2023-04-07T10:08:02.335Z,17.52
2023-04-07T10:10:30.823Z,17.67
2023-04-07T10:12:59.230Z,17.94
2023-04-07T10:15:28.704Z,18.17
2023-04-07T10:17:57.966Z,18.26
2023-04-07T10:20:26.220Z,18.35
2023-04-07T10:22:54.712Z,18.40
2023-04-07T10:25:23.916Z,18.38
2023-04-07T10:27:53.290Z,18.43
2023-04-07T10:30:23.730Z,18.71
2023-04-07T10:32:54.723Z,18.98
2023-04-07T10:35:23.046Z,19.04
2023-04-07T10:38:15.020Z,19.10
2023-04-07T10:40:43.976Z,19.25
2023-04-07T10:43:12.289Z,19.37
2023-04-07T10:45:59.410Z,19.63
2023-04-07T10:48:33.330Z,19.93
2023-04-07T10:51:17.854Z,20.09
2023-04-07T10:54:20.616Z,20.22
2023-04-07T10:57:10.278Z,20.00
2023-04-07T10:59:42.328Z,20.14
2023-04-07T11:02:33.123Z,20.26
2023-04-07T11:05:05.990Z,20.37
2023-04-07T11:07:48.805Z,20.44
2023-04-07T11:10:19.615Z,20.56
2023-04-07T11:13:01.587Z,20.66
2023-04-07T11:15:29.762Z,20.72
2023-04-07T11:18:27.827Z,20.89
2023-04-07T11:20:59.608Z,21.08
2023-04-07T11:23:28.577Z,20.98
2023-04-07T11:26:02.112Z,21.05
2023-04-07T11:28:33.256Z,21.03
2023-04-07T11:31:01.536Z,20.79
2023-04-07T11:33:31.470Z,20.78
2023-04-07T11:36:01.985Z,20.96
2023-04-07T11:38:31.547Z,21.27
2023-04-07T11:41:11.592Z,21.46
2023-04-07T11:43:42.018Z,21.59
2023-04-07T11:46:11.489Z,21.67
2023-04-07T11:48:40.745Z,21.68
2023-04-07T11:51:17.109Z,21.77
2023-04-07T11:53:45.286Z,21.89
2023-04-07T11:56:17.072Z,22.06
2023-04-07T11:58:48.986Z,22.09
2023-04-07T12:01:17.173Z,22.33
2023-04-07T12:03:59.473Z,22.61
2023-04-07T12:06:30.940Z,22.76
2023-04-07T12:08:59.069Z,22.90
2023-04-07T12:11:27.378Z,23.01
2023-04-07T12:13:56.673Z,23.22
2023-04-07T12:16:24.747Z,23.44
2023-04-07T12:18:53.031Z,23.62
2023-04-07T12:21:21.254Z,23.75
2023-04-07T12:23:51.060Z,23.82
2023-04-07T12:26:23.146Z,23.84
2023-04-07T12:28:53.736Z,23.73
2023-04-07T12:31:21.814Z,23.64
2023-04-07T12:33:50.096Z,23.72
2023-04-07T12:36:18.445Z,23.90
2023-04-07T12:38:47.322Z,24.13
2023-04-07T12:41:16.731Z,24.46
2023-04-07T12:43:46.695Z,24.76
2023-04-07T12:46:15.453Z,25.05
2023-04-07T12:48:43.600Z,25.32
2023-04-07T12:51:12.980Z,25.14
2023-04-07T12:53:40.995Z,25.02
2023-04-07T12:56:09.150Z,25.21
2023-04-07T12:58:38.595Z,25.50
2023-04-07T13:01:07.052Z,25.76
2023-04-07T13:03:35.327Z,25.79
2023-04-07T13:06:04.599Z,25.87
2023-04-07T13:08:32.666Z,26.04
2023-04-07T13:11:02.546Z,26.27
2023-04-07T13:13:31.965Z,26.33
2023-04-07T13:16:01.293Z,26.26
2023-04-07T13:18:29.628Z,26.13
2023-04-07T13:21:33.770Z,26.21
2023-04-07T13:23:46.558Z,26.27
2023-04-07T13:26:14.622Z,25.98
2023-04-07T13:28:42.933Z,25.83
2023-04-07T13:31:15.810Z,25.46
2023-04-07T13:33:44.433Z,25.54
2023-04-07T13:36:12.582Z,25.95
2023-04-07T13:38:42.342Z,26.08
2023-04-07T13:41:10.418Z,26.29
2023-04-07T13:43:38.907Z,26.35
2023-04-07T13:46:17.173Z,26.55
2023-04-07T13:48:51.035Z,26.77
2023-04-07T13:51:19.290Z,26.83
2023-04-07T13:53:47.826Z,27.02
2023-04-07T13:56:16.192Z,27.06
2023-04-07T13:58:44.549Z,26.94
2023-04-07T14:01:12.632Z,26.95
2023-04-07T14:03:40.801Z,26.75
2023-04-07T14:06:10.581Z,26.40
2023-04-07T14:08:38.747Z,26.03
2023-04-07T14:11:06.918Z,26.08
2023-04-07T14:13:34.935Z,26.24
2023-04-07T14:16:03.393Z,26.20
2023-04-07T14:18:31.796Z,26.16
2023-04-07T14:21:00.471Z,26.16
2023-04-07T14:23:36.822Z,26.24
2023-04-07T14:26:08.255Z,26.09
2023-04-07T14:28:36.231Z,26.31
2023-04-07T14:31:05.020Z,26.51
2023-04-07T14:33:33.118Z,26.65
2023-04-07T14:36:01.449Z,26.95
2023-04-07T14:38:31.018Z,27.40
2023-04-07T14:43:34.491Z,28.42
2023-04-07T14:46:02.607Z,28.78
2023-04-07T14:48:30.718Z,28.85
2023-04-07T14:51:08.699Z,28.51
2023-04-07T14:53:38.902Z,28.09
2023-04-07T14:56:07.361Z,27.58
2023-04-07T14:58:37.481Z,27.36
2023-04-07T15:01:06.565Z,27.23
2023-04-07T15:03:35.179Z,27.04
2023-04-07T15:06:03.552Z,26.74
2023-04-07T15:08:31.601Z,26.56
2023-04-07T15:11:01.149Z,26.41
2023-04-07T15:13:29.100Z,26.17
2023-04-07T15:15:57.218Z,25.95
2023-04-07T15:18:25.402Z,25.51
2023-04-07T15:20:53.719Z,25.32
2023-04-07T15:23:21.840Z,25.27
2023-04-07T15:25:51.443Z,25.13
2023-04-07T15:28:23.468Z,25.06
2023-04-07T15:30:51.747Z,25.11
2023-04-07T15:33:19.818Z,25.01
2023-04-07T15:35:48.095Z,25.08
2023-04-07T15:38:16.116Z,24.97
2023-04-07T15:40:44.223Z,25.07
2023-04-07T15:43:12.134Z,24.63
2023-04-07T15:45:45.934Z,24.72
2023-04-07T15:48:14.264Z,24.91
2023-04-07T15:50:42.187Z,25.13
2023-04-07T15:53:10.443Z,25.52
2023-04-07T15:55:38.479Z,26.20
2023-04-07T15:58:08.133Z,26.88
2023-04-07T16:00:36.732Z,27.36
2023-04-07T16:03:06.447Z,27.80
2023-04-07T16:05:36.019Z,28.04
2023-04-07T16:08:04.021Z,28.16
2023-04-07T16:10:32.017Z,28.34
2023-04-07T16:13:00.074Z,28.43
2023-04-07T16:15:39.409Z,28.48
2023-04-07T16:18:11.686Z,28.36
2023-04-07T16:20:39.959Z,28.56
2023-04-07T16:23:08.143Z,28.97
2023-04-07T16:25:36.533Z,29.35
2023-04-07T16:28:04.610Z,29.60
2023-04-07T16:30:32.899Z,29.77
2023-04-07T16:33:01.571Z,29.53
2023-04-07T16:35:32.127Z,29.37
2023-04-07T16:38:04.074Z,29.37
2023-04-07T16:40:32.403Z,29.55
2023-04-07T16:43:00.520Z,29.69
2023-04-07T16:45:28.763Z,29.55
2023-04-07T16:47:56.865Z,29.61
2023-04-07T16:50:25.045Z,29.84
2023-04-07T16:52:57.294Z,29.80
2023-04-07T16:55:25.521Z,29.87
2023-04-07T16:57:53.545Z,29.99
2023-04-07T17:00:21.986Z,29.98
2023-04-07T17:02:50.549Z,29.98
2023-04-07T17:05:19.281Z,29.85
2023-04-07T17:07:47.259Z,29.83
2023-04-07T17:10:19.790Z,30.00
2023-04-07T17:12:52.116Z,30.07
2023-04-07T17:15:21.561Z,30.00
2023-04-07T17:17:49.969Z,29.73
2023-04-07T17:20:18.553Z,29.59
2023-04-07T17:22:51.066Z,29.26
2023-04-07T17:25:22.456Z,28.94
2023-04-07T17:27:50.490Z,28.64
2023-04-07T17:30:19.250Z,28.30
2023-04-07T17:32:47.460Z,27.98
2023-04-07T17:35:15.438Z,27.61
2023-04-07T17:37:44.177Z,27.48
2023-04-07T17:40:15.178Z,27.43
2023-04-07T17:42:44.766Z,27.46
2023-04-07T17:45:12.847Z,27.16
2023-04-07T17:47:40.923Z,27.25
2023-04-07T17:50:10.159Z,27.06
2023-04-07T17:52:38.160Z,26.52
2023-04-07T17:55:07.995Z,25.90
2023-04-07T17:57:36.851Z,25.25
2023-04-07T18:00:07.219Z,24.81
2023-04-07T18:02:41.429Z,24.36
2023-04-07T18:05:10.424Z,23.97
2023-04-07T18:07:38.939Z,23.54
2023-04-07T18:10:08.197Z,23.10
2023-04-07T18:12:36.218Z,22.78
2023-04-07T18:15:05.002Z,22.52
2023-04-07T18:17:34.294Z,22.18
2023-04-07T18:20:02.360Z,21.85
2023-04-07T18:22:31.523Z,21.54
2023-04-07T18:25:00.273Z,21.17
2023-04-07T18:27:28.430Z,20.73
2023-04-07T18:29:57.698Z,20.42
2023-04-07T18:32:25.679Z,20.17
2023-04-07T18:34:55.106Z,19.72
2023-04-07T18:37:23.258Z,19.37
2023-04-07T18:39:52.197Z,18.99
2023-04-07T18:42:20.521Z,18.82
2023-04-07T18:44:48.409Z,18.70
2023-04-07T18:47:16.466Z,18.63
2023-04-07T18:49:44.385Z,18.53
2023-04-07T18:52:13.654Z,18.42
2023-04-07T18:54:41.570Z,18.29
2023-04-07T18:57:09.453Z,18.16
2023-04-07T18:59:39.815Z,18.02
2023-04-07T19:02:07.992Z,17.93
2023-04-07T19:04:35.970Z,17.84
2023-04-07T19:07:03.886Z,17.76
2023-04-07T19:09:33.301Z,17.71
2023-04-07T19:12:01.258Z,17.71
2023-04-07T19:14:29.523Z,17.67
2023-04-07T19:16:57.416Z,17.56
2023-04-07T19:19:25.971Z,17.48
2023-04-07T19:21:53.899Z,17.40
2023-04-07T19:24:21.810Z,17.31
2023-04-07T19:26:52.607Z,17.23
2023-04-07T19:29:20.595Z,17.15
2023-04-07T19:31:48.544Z,17.05
2023-04-07T19:34:16.627Z,16.96
2023-04-07T19:36:44.547Z,16.86
2023-04-07T19:39:12.546Z,16.77
2023-04-07T19:41:40.717Z,16.63
2023-04-07T19:44:10.388Z,16.48
2023-04-07T19:46:38.255Z,16.39
2023-04-07T19:49:06.177Z,16.30
2023-04-07T19:51:35.384Z,16.20
2023-04-07T19:54:03.506Z,16.10
2023-04-07T19:56:31.433Z,16.01
2023-04-07T19:58:59.359Z,15.91
2023-04-07T20:01:28.755Z,15.83
2023-04-07T20:03:56.799Z,15.75
2023-04-07T20:06:27.198Z,15.68
2023-04-07T20:08:55.607Z,15.59
2023-04-07T20:11:23.502Z,15.51
2023-04-07T20:13:51.431Z,15.45
2023-04-07T20:16:19.344Z,15.37
2023-04-07T20:18:49.270Z,15.26
2023-04-07T20:21:17.273Z,15.15
2023-04-07T20:23:45.229Z,15.09
2023-04-07T20:26:13.227Z,15.03
2023-04-07T20:28:41.101Z,14.93
2023-04-07T20:31:09.084Z,14.81
2023-04-07T20:33:37.208Z,14.74
2023-04-07T20:36:06.880Z,14.65
2023-04-07T20:38:35.228Z,14.62
2023-04-07T20:41:03.223Z,14.61
2023-04-07T20:43:31.178Z,14.56
2023-04-07T20:45:59.175Z,14.55
2023-04-07T20:48:28.303Z,14.47
2023-04-07T20:50:56.252Z,14.39
2023-04-07T20:53:25.583Z,14.34
2023-04-07T20:55:53.492Z,14.27
2023-04-07T20:58:21.405Z,14.19
2023-04-07T21:00:49.341Z,14.22
2023-04-07T21:03:17.551Z,14.17
2023-04-07T21:05:45.870Z,14.14
2023-04-07T21:08:14.724Z,14.01
2023-04-07T21:10:44.177Z,13.99
2023-04-07T21:13:12.341Z,13.97
2023-04-07T21:15:42.349Z,13.99
2023-04-07T21:18:10.333Z,13.96
2023-04-07T21:20:38.305Z,13.95
2023-04-07T21:23:07.657Z,13.90
2023-04-07T21:25:35.819Z,13.90
2023-04-07T21:28:05.718Z,13.87
2023-04-07T21:30:33.674Z,13.89
2023-04-07T21:33:01.677Z,13.85
2023-04-07T21:35:29.883Z,13.84
2023-04-07T21:37:58.387Z,13.80
2023-04-07T21:40:27.539Z,13.77
2023-04-07T21:42:55.448Z,13.72
2023-04-07T21:45:25.073Z,13.69
2023-04-07T21:47:53.152Z,13.63
2023-04-07T21:50:23.966Z,13.60
2023-04-07T21:52:52.027Z,13.56
2023-04-07T21:55:20.705Z,13.54
2023-04-07T21:57:50.265Z,13.51
2023-04-07T22:00:18.461Z,13.52
2023-04-07T22:02:48.131Z,13.53
2023-04-07T22:05:16.624Z,13.53
2023-04-07T22:07:46.882Z,13.54
2023-04-07T22:10:14.965Z,13.54
2023-04-07T22:12:42.863Z,13.55
2023-04-07T22:15:12.586Z,13.54
2023-04-07T22:17:41.266Z,13.55
2023-04-07T22:20:12.586Z,13.56
2023-04-07T22:22:40.542Z,13.54
2023-04-07T22:25:09.170Z,13.50
2023-04-07T22:27:37.131Z,13.47
2023-04-07T22:30:05.446Z,13.45
2023-04-07T22:32:33.532Z,13.44
2023-04-07T22:35:01.760Z,13.41
2023-04-07T22:37:31.173Z,13.40
2023-04-07T22:39:59.095Z,13.39
2023-04-07T22:42:27.114Z,13.36
2023-04-07T22:44:55.019Z,13.34
2023-04-07T22:47:23.015Z,13.28
2023-04-07T22:49:50.903Z,13.26
2023-04-07T22:52:18.775Z,13.25
2023-04-07T22:54:48.094Z,13.26
2023-04-07T22:57:16.542Z,13.24
2023-04-07T22:59:44.442Z,13.24
2023-04-07T23:02:13.535Z,13.23
2023-04-07T23:04:41.849Z,13.26
2023-04-07T23:07:09.720Z,13.27
2023-04-07T23:09:37.640Z,13.29
2023-04-07T23:12:08.150Z,13.31
2023-04-07T23:14:36.126Z,13.34
2023-04-07T23:17:04.054Z,13.34
2023-04-07T23:19:31.998Z,13.35
2023-04-07T23:22:00.165Z,13.35
2023-04-07T23:24:28.083Z,13.31
2023-04-07T23:26:56.578Z,13.24
2023-04-07T23:29:25.992Z,13.19
2023-04-07T23:31:54.040Z,13.16
2023-04-07T23:34:22.175Z,13.10
2023-04-07T23:36:50.170Z,13.04
2023-04-07T23:39:18.063Z,13.00
2023-04-07T23:41:46.081Z,12.94
2023-04-07T23:44:14.010Z,12.93
2023-04-07T23:46:44.586Z,12.90
2023-04-07T23:49:12.601Z,12.88
2023-04-07T23:51:40.601Z,12.84
2023-04-07T23:54:08.487Z,12.82
2023-04-07T23:56:36.589Z,12.82
2023-04-07T23:59:04.559Z,12.83
